Du har inga inställningar för hoppväder.nu

Hoppväder.nu

Senast uppdaterat 03:07

UTC-tid

2021-10-25 kl. 01:07


Sol och måne

Solen går upp 8:14 och går ner 17:59 (beräknade cirkatider)
Nästa fullmåne blir om 25 dagar (2021-11-19)


Väderstation: Skydive Mohed

Väderrapport från: 2021/10/25 kl 03:06:56
Vindriktning: 354°
Vinden har varierat mellan 315° och 22° de senaste 10 minuterna.
Vindstyrka: 5,6 m/s
Byvind: 9,2 m/s
Lufttryck: 1025,9 hPa
Temperatur: 11,4°C, känns som: 6,2°C
Daggpunkt: 4,4°C
Luftfuktighet: 62%
Molnbas: 2875 m




METAR

ESSD (Borlänge)
(17 minuter sedan)
ESSD 250050Z AUTO 24014KT 9999 BKN016/// OVC043/// 09/06 Q1012=



ESNN (Sundsvall-Härnösand)
(17 minuter sedan)
ESNN 250050Z AUTO 33003KT 9999 SCT170/// 00/M00 Q1007=












TAF

ESSD (Borlänge)
ESSD



ESNN (Sundsvall-Härnösand)
ESNN





Kodnycklar till TAF och METAR






LHP

(Mohed är område se42e i Delområde 4)

Prognos är inte uppdaterad






Preliminär prognos